Time;durP1;ratioP1;P1;durP2;ratioP2;P2;SDS_P1;SDS_P2;PMS_P1;PMS_P2;Temp;Humidity;BMP_temperature;BMP_pressure;BME280_temperature;BME280_humidity;BME280_pressure;Samples;Min_cycle;Max_cycle;Signal;HPM_P1;HPM_P2
2023/05/03 00:00:59;;;;;;;2.90;2.08;;;;;;;4.06;100.00;101884.97;6259792;28;20041;-93
2023/05/03 00:04:02;;;;;;;4.53;2.30;;;;;;;4.01;100.00;101880.88;6258406;28;20045;-93
2023/05/03 00:07:04;;;;;;;4.65;2.42;;;;;;;3.97;100.00;101882.66;6248390;28;20124;-92
2023/05/03 00:10:07;;;;;;;4.50;1.90;;;;;;;3.95;100.00;101887.03;6258347;28;20862;-93
2023/05/03 00:13:09;;;;;;;4.75;2.10;;;;;;;3.90;100.00;101878.63;6257925;28;20881;-92
2023/05/03 00:16:11;;;;;;;5.18;2.40;;;;;;;3.84;100.00;101884.75;6258655;28;20848;-92
2023/05/03 00:19:12;;;;;;;4.85;2.30;;;;;;;3.81;100.00;101886.56;6258029;28;20090;-92
2023/05/03 00:22:31;;;;;;;3.90;2.72;;;;;;;3.78;100.00;101881.53;6257048;28;20418;-92
2023/05/03 00:25:34;;;;;;;4.28;2.70;;;;;;;3.79;100.00;101881.47;6259304;28;20059;-92
2023/05/03 00:28:36;;;;;;;3.83;2.70;;;;;;;3.76;100.00;101878.19;6258825;28;20593;-92
2023/05/03 00:31:37;;;;;;;5.35;2.50;;;;;;;3.76;100.00;101884.13;6258862;28;20044;-92
2023/05/03 00:34:39;;;;;;;8.10;2.67;;;;;;;3.73;100.00;101881.66;6248657;28;20041;-92
2023/05/03 00:37:41;;;;;;;4.63;2.58;;;;;;;3.73;100.00;101873.16;6258276;28;20068;-92
2023/05/03 00:40:43;;;;;;;5.30;2.55;;;;;;;3.71;100.00;101885.16;6253269;28;20095;-92
2023/05/03 00:43:45;;;;;;;3.42;2.63;;;;;;;3.69;100.00;101884.34;6251914;28;20064;-93
2023/05/03 00:46:47;;;;;;;6.65;2.78;;;;;;;3.65;100.00;101886.16;6258261;28;20045;-92
2023/05/03 00:49:49;;;;;;;5.28;2.55;;;;;;;3.59;100.00;101884.59;6252476;28;20048;-92
2023/05/03 00:52:51;;;;;;;5.13;2.15;;;;;;;3.52;100.00;101870.28;6256113;28;20052;-92
2023/05/03 00:55:54;;;;;;;5.07;2.80;;;;;;;3.48;100.00;101876.41;6240770;28;20053;-93
2023/05/03 00:58:58;;;;;;;3.63;2.53;;;;;;;3.47;100.00;101882.38;6257890;28;20040;-93
2023/05/03 01:02:00;;;;;;;4.60;2.17;;;;;;;3.43;100.00;101873.97;6256393;28;20058;-93
2023/05/03 01:05:06;;;;;;;4.10;2.35;;;;;;;3.38;100.00;101874.94;6257741;28;20056;-92
2023/05/03 01:08:19;;;;;;;6.05;2.67;;;;;;;3.37;100.00;101868.16;6258986;28;20072;-91
2023/05/03 01:11:36;;;;;;;2.40;2.03;;;;;;;3.32;100.00;101870.00;6256537;28;20033;-91
2023/05/03 01:14:57;;;;;;;4.50;2.20;;;;;;;3.25;100.00;101884.69;6256231;28;20048;-92
2023/05/03 01:18:06;;;;;;;;;;;;;;;3.21;100.00;101878.81;6261888;28;20464;-92
2023/05/03 01:21:12;;;;;;;4.57;2.40;;;;;;;3.23;100.00;101878.78;6261866;28;20647;-92
2023/05/03 01:24:21;;;;;;;2.70;1.90;;;;;;;3.22;100.00;101885.59;6262541;28;20517;-92
2023/05/03 01:27:23;;;;;;;3.22;2.40;;;;;;;3.17;100.00;101887.44;6260858;28;20052;-92
2023/05/03 01:30:27;;;;;;;3.63;2.00;;;;;;;3.13;100.00;101885.84;6261001;28;20542;-92
2023/05/03 01:33:45;;;;;;;3.45;2.13;;;;;;;3.13;100.00;101879.88;6261395;28;20048;-92
2023/05/03 01:36:49;;;;;;;5.22;2.40;;;;;;;3.06;100.00;101886.06;6260438;28;20045;-92
2023/05/03 01:40:00;;;;;;;7.53;2.45;;;;;;;3.07;100.00;101880.06;6259050;28;20061;-92
2023/05/03 01:43:03;;;;;;;3.97;2.00;;;;;;;3.05;100.00;101877.53;6258470;28;20853;-93
2023/05/03 01:46:05;;;;;;;5.85;2.47;;;;;;;3.02;100.00;101883.56;6261483;28;20053;-92
2023/05/03 01:49:07;;;;;;;3.20;2.65;;;;;;;2.92;100.00;101883.84;6260563;28;20048;-93
2023/05/03 01:52:09;;;;;;;5.93;2.70;;;;;;;2.95;100.00;101884.59;6241071;28;20415;-92
2023/05/03 01:55:11;;;;;;;4.95;2.38;;;;;;;2.99;100.00;101887.94;6251816;28;20037;-92
2023/05/03 01:58:13;;;;;;;4.05;2.28;;;;;;;3.00;100.00;101881.91;6254557;28;20048;-92
2023/05/03 02:01:16;;;;;;;6.60;2.42;;;;;;;2.94;100.00;101884.66;6246675;28;20037;-92
2023/05/03 02:04:19;;;;;;;4.10;2.47;;;;;;;2.90;100.00;101883.88;6260195;28;20045;-92
2023/05/03 02:07:21;;;;;;;5.32;2.50;;;;;;;2.89;100.00;101889.03;6260831;28;20049;-92
2023/05/03 02:10:24;;;;;;;4.10;2.58;;;;;;;2.86;100.00;101892.50;6252564;28;20040;-92
2023/05/03 02:13:29;;;;;;;5.15;2.42;;;;;;;2.85;100.00;101897.66;6255303;28;20792;-92
2023/05/03 02:16:32;;;;;;;4.32;2.38;;;;;;;2.80;100.00;101897.75;6257449;28;20040;-92
2023/05/03 02:19:35;;;;;;;4.25;2.28;;;;;;;2.76;100.00;101901.28;6264792;28;20053;-93
2023/05/03 02:22:36;;;;;;;4.70;2.70;;;;;;;2.72;100.00;101903.06;6255394;28;20037;-93
2023/05/03 02:25:39;;;;;;;3.58;2.22;;;;;;;2.70;100.00;101909.94;6256067;28;20075;-92
2023/05/03 02:28:41;;;;;;;5.05;2.25;;;;;;;2.69;100.00;101900.59;6256712;28;20050;-92
2023/05/03 02:31:43;;;;;;;5.05;2.30;;;;;;;2.67;100.00;101907.44;6254303;28;20079;-92
2023/05/03 02:34:47;;;;;;;7.57;2.45;;;;;;;2.63;100.00;101910.94;6261375;28;20044;-92
2023/05/03 02:37:53;;;;;;;2.70;1.88;;;;;;;2.62;100.00;101914.38;6232571;28;20499;-92
2023/05/03 02:40:55;;;;;;;4.13;2.22;;;;;;;2.63;100.00;101915.22;6256790;28;20045;-92
2023/05/03 02:43:57;;;;;;;3.70;2.10;;;;;;;2.62;100.00;101923.78;6246984;28;20044;-92
2023/05/03 02:47:01;;;;;;;4.07;2.03;;;;;;;2.60;100.00;101923.81;6232698;28;20092;-93
2023/05/03 02:50:05;;;;;;;3.97;2.55;;;;;;;2.59;100.00;101920.41;6259495;28;20079;-93
2023/05/03 02:53:11;;;;;;;5.72;2.47;;;;;;;2.59;100.00;101922.13;6247983;28;20041;-92
2023/05/03 02:56:13;;;;;;;4.53;2.28;;;;;;;2.55;100.00;101928.19;6247314;28;20124;-92
2023/05/03 02:59:15;;;;;;;3.58;2.17;;;;;;;2.55;100.00;101917.97;6256307;28;20128;-92
2023/05/03 03:02:17;;;;;;;3.05;2.40;;;;;;;2.59;100.00;101928.06;6242685;28;20044;-93
2023/05/03 03:05:19;;;;;;;6.70;2.92;;;;;;;2.59;100.00;101929.81;6258998;28;20040;-92
2023/05/03 03:08:23;;;;;;;3.97;2.45;;;;;;;2.61;100.00;101925.50;6262550;28;20819;-92
2023/05/03 03:11:26;;;;;;;5.53;2.72;;;;;;;2.63;100.00;101931.41;6260361;28;20048;-93
2023/05/03 03:14:28;;;;;;;4.43;2.05;;;;;;;2.66;100.00;101923.69;6261783;28;20058;-92
2023/05/03 03:17:30;;;;;;;4.07;2.63;;;;;;;2.74;100.00;101920.94;6260763;28;20045;-92
2023/05/03 03:20:33;;;;;;;8.35;2.72;;;;;;;2.71;100.00;101929.53;6261017;28;20060;-93
2023/05/03 03:23:36;;;;;;;6.18;2.35;;;;;;;2.75;100.00;101920.88;6251781;28;20552;-92
2023/05/03 03:26:38;;;;;;;4.50;2.47;;;;;;;2.78;100.00;101925.06;6245576;28;20053;-92
2023/05/03 03:29:40;;;;;;;5.95;2.67;;;;;;;2.76;100.00;101927.69;6259627;28;20261;-93
2023/05/03 03:32:45;;;;;;;4.00;2.63;;;;;;;2.73;100.00;101932.88;6260908;28;20048;-92
2023/05/03 03:35:55;;;;;;;6.30;2.87;;;;;;;2.68;100.00;101924.44;6256922;28;20044;-92
2023/05/03 03:39:03;;;;;;;4.43;2.60;;;;;;;2.70;100.00;101930.38;6261555;28;20368;-92
2023/05/03 03:42:10;;;;;;;6.88;3.08;;;;;;;2.65;100.00;101924.53;6257118;28;20037;-93
2023/05/03 03:45:12;;;;;;;5.18;2.90;;;;;;;2.69;100.00;101925.31;6260807;28;20118;-92
2023/05/03 03:48:13;;;;;;;6.32;2.70;;;;;;;2.73;100.00;101929.47;6261725;28;20084;-92
2023/05/03 03:51:15;;;;;;;8.13;3.10;;;;;;;2.70;100.00;101922.72;6261637;28;20044;-93
2023/05/03 03:54:21;;;;;;;7.03;3.10;;;;;;;2.69;100.00;101918.47;6267336;28;20044;-92
2023/05/03 03:57:28;;;;;;;5.13;2.60;;;;;;;2.72;100.00;101915.00;6262324;28;20045;-92
2023/05/03 04:00:30;;;;;;;4.75;2.88;;;;;;;2.73;100.00;101922.66;6263886;28;20045;-92
2023/05/03 04:03:39;;;;;;;4.72;2.78;;;;;;;2.72;100.00;101917.56;6269321;28;20053;-92
2023/05/03 04:06:42;;;;;;;4.25;2.83;;;;;;;2.65;100.00;101921.97;6271082;28;20498;-92
2023/05/03 04:09:47;;;;;;;6.05;2.92;;;;;;;2.64;100.00;101920.31;6262704;28;20136;-93
2023/05/03 04:12:49;;;;;;;5.78;2.80;;;;;;;2.60;100.00;101911.03;6261019;28;20045;-92
2023/05/03 04:15:54;;;;;;;5.28;2.88;;;;;;;2.58;100.00;101910.22;6249918;28;20053;-92
2023/05/03 04:18:57;;;;;;;5.13;2.88;;;;;;;2.56;100.00;101909.44;6262592;28;20049;-93
2023/05/03 04:21:59;;;;;;;6.35;3.20;;;;;;;2.55;100.00;101917.97;6257772;28;20049;-92
2023/05/03 04:25:01;;;;;;;7.25;2.83;;;;;;;2.56;100.00;101915.38;6256735;28;20060;-93
2023/05/03 04:28:04;;;;;;;4.72;3.15;;;;;;;2.57;100.00;101911.94;6259476;28;20092;-92
2023/05/03 04:31:06;;;;;;;4.57;3.05;;;;;;;2.58;100.00;101917.88;6255988;28;20505;-92
2023/05/03 04:34:13;;;;;;;4.72;2.63;;;;;;;2.56;100.00;101917.09;6253141;28;20395;-92
2023/05/03 04:37:24;;;;;;;5.20;2.67;;;;;;;2.55;100.00;101929.00;6265321;28;20056;-92
2023/05/03 04:40:26;;;;;;;4.03;2.70;;;;;;;2.56;100.00;101925.59;6259203;28;20080;-92
2023/05/03 04:43:38;;;;;;;4.28;2.85;;;;;;;2.56;100.00;101924.78;6259867;28;20112;-92
2023/05/03 04:46:41;;;;;;;4.20;2.78;;;;;;;2.64;100.00;101925.41;6255436;28;20052;-92
2023/05/03 04:49:43;;;;;;;4.25;2.38;;;;;;;2.71;100.00;101926.97;6256887;28;20048;-92
2023/05/03 04:52:46;;;;;;;4.70;2.70;;;;;;;2.77;100.00;101931.09;6262758;28;20044;-92
2023/05/03 04:55:49;;;;;;;6.88;2.78;;;;;;;2.79;100.00;101930.16;6264026;28;20114;-92
2023/05/03 04:58:55;;;;;;;4.35;2.90;;;;;;;2.82;100.00;101934.38;6254862;28;20041;-92
2023/05/03 05:01:57;;;;;;;4.75;2.67;;;;;;;2.90;100.00;101934.19;6239992;28;20072;-92
2023/05/03 05:04:59;;;;;;;11.80;2.97;;;;;;;2.93;100.00;101937.53;6247620;28;20034;-92
2023/05/03 05:08:01;;;;;;;5.00;2.80;;;;;;;2.96;100.00;101939.16;6262842;28;20049;-92
2023/05/03 05:11:12;;;;;;;6.57;3.00;;;;;;;3.03;100.00;101935.56;6261953;28;20564;-92
2023/05/03 05:14:13;;;;;;;8.85;3.55;;;;;;;3.08;100.00;101943.97;6246942;28;20048;-92
2023/05/03 05:17:15;;;;;;;6.05;3.10;;;;;;;3.16;100.00;101948.91;6259732;28;20087;-92
2023/05/03 05:20:18;;;;;;;6.53;3.60;;;;;;;3.20;100.00;101946.19;6264004;28;20037;-92
2023/05/03 05:23:23;;;;;;;6.80;3.58;;;;;;;3.29;100.00;101949.44;6263763;28;20163;-92
2023/05/03 05:26:27;;;;;;;5.55;3.15;;;;;;;3.36;100.00;101954.34;6262514;28;20049;-92
2023/05/03 05:29:29;;;;;;;7.20;3.45;;;;;;;3.44;100.00;101954.16;6263660;28;20045;-91
2023/05/03 05:32:32;;;;;;;6.30;2.95;;;;;;;3.45;100.00;101950.69;6263323;28;20049;-91
2023/05/03 05:35:35;;;;;;;9.35;3.78;;;;;;;3.51;100.00;101963.34;6261367;28;20037;-92
2023/05/03 05:38:39;;;;;;;7.28;3.50;;;;;;;3.56;100.00;101966.63;6263598;28;20063;-92
2023/05/03 05:41:41;;;;;;;6.88;3.83;;;;;;;3.67;100.00;101968.88;6264714;28;20052;-91
2023/05/03 05:44:44;;;;;;;7.10;3.70;;;;;;;3.77;100.00;101969.47;6257739;28;20056;-91
2023/05/03 05:47:47;;;;;;;7.53;3.60;;;;;;;3.77;100.00;101977.16;6261521;28;20036;-91
2023/05/03 05:50:49;;;;;;;7.75;3.10;;;;;;;3.88;100.00;101976.00;6263651;28;20466;-92
2023/05/03 05:53:51;;;;;;;4.95;3.03;;;;;;;4.02;100.00;101978.16;6264002;28;20037;-92
2023/05/03 05:56:54;;;;;;;7.40;3.30;;;;;;;4.06;100.00;101973.81;6263650;28;20472;-91
2023/05/03 05:59:56;;;;;;;4.30;3.05;;;;;;;4.05;100.00;101975.53;6234095;28;20416;-92
2023/05/03 06:02:58;;;;;;;5.95;2.85;;;;;;;4.12;100.00;101971.06;6242522;28;20037;-92
2023/05/03 06:06:00;;;;;;;7.80;4.93;;;;;;;4.20;100.00;101971.69;6263973;28;20047;-91
2023/05/03 06:09:04;;;;;;;5.95;3.60;;;;;;;4.25;100.00;101972.41;6262775;28;20048;-92
2023/05/03 06:12:26;;;;;;;6.80;3.50;;;;;;;4.33;100.00;101979.84;6256352;28;20049;-93
2023/05/03 06:15:28;;;;;;;7.22;3.58;;;;;;;4.45;100.00;101983.78;6260879;28;20533;-91
2023/05/03 06:18:31;;;;;;;6.75;3.33;;;;;;;4.52;100.00;101986.13;6244705;28;20052;-91
2023/05/03 06:21:34;;;;;;;6.90;2.97;;;;;;;4.59;100.00;101991.06;6262911;28;20041;-91
2023/05/03 06:24:36;;;;;;;7.35;3.80;;;;;;;4.67;100.00;101994.22;6261233;28;20048;-91
2023/05/03 06:27:39;;;;;;;7.43;3.95;;;;;;;4.79;100.00;102004.09;6250797;28;20049;-92
2023/05/03 06:30:41;;;;;;;4.57;3.17;;;;;;;4.87;100.00;102004.72;6260063;28;20045;-92
2023/05/03 06:33:47;;;;;;;8.98;4.40;;;;;;;5.00;100.00;102009.47;6261650;28;20468;-91
2023/05/03 06:36:49;;;;;;;10.98;3.70;;;;;;;5.07;100.00;102009.22;6261698;28;20552;-91
2023/05/03 06:39:52;;;;;;;5.72;3.40;;;;;;;5.21;100.00;102011.31;6262305;28;20538;-91
2023/05/03 06:42:54;;;;;;;7.22;3.70;;;;;;;5.26;100.00;102012.00;6244868;28;20416;-91
2023/05/03 06:46:07;;;;;;;8.90;3.65;;;;;;;5.34;100.00;102010.06;6262142;28;20049;-92
2023/05/03 06:49:10;;;;;;;6.63;3.53;;;;;;;5.58;100.00;102015.25;6261624;28;20056;-91
2023/05/03 06:52:12;;;;;;;7.25;3.15;;;;;;;5.60;100.00;102014.28;6243335;28;20422;-92
2023/05/03 06:55:13;;;;;;;6.95;3.55;;;;;;;5.70;100.00;102007.13;6260856;28;20048;-92
2023/05/03 06:58:24;;;;;;;6.47;3.17;;;;;;;5.66;100.00;102010.66;6256276;28;20872;-92
2023/05/03 07:01:26;;;;;;;;;;;;;;;5.69;100.00;102008.03;6261214;28;20071;-91
2023/05/03 07:04:29;;;;;;;6.55;3.20;;;;;;;5.78;100.00;102010.25;6262756;28;19932;-92
2023/05/03 07:07:33;;;;;;;5.90;3.10;;;;;;;5.82;100.00;102006.69;6255350;28;20080;-91
2023/05/03 07:10:37;;;;;;;4.20;3.03;;;;;;;5.95;100.00;102003.72;6263232;28;20077;-91
2023/05/03 07:13:38;;;;;;;8.98;2.80;;;;;;;6.09;100.00;102011.78;6261690;28;20123;-90
2023/05/03 07:16:40;;;;;;;4.97;2.70;;;;;;;6.07;100.00;102007.59;6262322;28;20037;-91
2023/05/03 07:19:43;;;;;;;7.00;3.33;;;;;;;6.07;100.00;101998.13;6239211;28;20156;-90
2023/05/03 07:22:44;;;;;;;6.68;3.15;;;;;;;6.07;100.00;102000.72;6256434;28;20044;-90
2023/05/03 07:25:46;;;;;;;6.93;3.30;;;;;;;6.17;100.00;102007.19;6253624;28;20179;-90
2023/05/03 07:28:49;;;;;;;4.10;2.20;;;;;;;6.36;100.00;102003.91;6251559;28;20420;-90
2023/05/03 07:31:50;;;;;;;7.57;2.13;;;;;;;6.63;100.00;102004.59;6256807;28;20329;-90
2023/05/03 07:34:54;;;;;;;2.85;2.10;;;;;;;6.90;100.00;101997.53;6255165;28;20497;-90
2023/05/03 07:37:56;;;;;;;2.75;2.03;;;;;;;7.16;100.00;101995.69;6245933;28;20041;-89
2023/05/03 07:40:58;;;;;;;3.63;2.28;;;;;;;7.44;100.00;101990.19;6244586;28;20080;-89
2023/05/03 07:44:00;;;;;;;4.53;2.28;;;;;;;7.73;100.00;101994.13;6261574;28;20040;-89
2023/05/03 07:47:01;;;;;;;5.32;1.95;;;;;;;7.95;100.00;101988.88;6252472;28;20486;-90
2023/05/03 07:50:04;;;;;;;6.07;1.63;;;;;;;8.27;100.00;101995.13;6259597;28;20511;-90
2023/05/03 07:53:10;;;;;;;7.13;3.30;;;;;;;8.54;100.00;101994.78;6256657;28;20624;-90
2023/05/03 07:56:12;;;;;;;4.20;2.10;;;;;;;8.77;100.00;101985.97;6253066;28;20494;-89
2023/05/03 07:59:14;;;;;;;5.75;1.88;;;;;;;8.98;100.00;101987.50;6246859;28;20071;-89
2023/05/03 08:02:16;;;;;;;3.90;1.80;;;;;;;9.06;100.00;101987.13;6256840;28;20052;-90
2023/05/03 08:05:18;;;;;;;3.53;1.90;;;;;;;9.13;100.00;101983.34;6253489;28;20044;-90
2023/05/03 08:08:20;;;;;;;4.13;1.65;;;;;;;9.28;100.00;101984.34;6257502;28;20048;-90
2023/05/03 08:11:22;;;;;;;3.58;1.67;;;;;;;9.41;100.00;101985.38;6254933;28;20049;-90
2023/05/03 08:14:26;;;;;;;4.35;1.83;;;;;;;9.39;100.00;101981.19;6258045;28;20518;-90
2023/05/03 08:17:28;;;;;;;3.47;1.80;;;;;;;9.28;100.00;101987.75;6255391;28;20161;-90
2023/05/03 08:20:30;;;;;;;7.25;1.83;;;;;;;9.14;100.00;101989.34;6252526;28;20480;-90
2023/05/03 08:23:34;;;;;;;7.95;1.92;;;;;;;8.97;100.00;101985.84;6250397;28;20037;-90
2023/05/03 08:26:36;;;;;;;6.55;2.42;;;;;;;8.93;100.00;101979.16;6263629;28;20048;-90
2023/05/03 08:29:38;;;;;;;7.35;2.33;;;;;;;8.98;100.00;101984.94;6249094;28;20577;-90
2023/05/03 08:32:40;;;;;;;13.68;6.78;;;;;;;8.99;100.00;101989.19;6238253;28;20057;-90
2023/05/03 08:35:42;;;;;;;4.90;2.50;;;;;;;9.05;100.00;101986.31;6257926;28;20046;-90
2023/05/03 08:38:44;;;;;;;7.40;2.20;;;;;;;9.05;100.00;101985.47;6260874;28;20037;-90
2023/05/03 08:41:54;;;;;;;3.53;1.90;;;;;;;9.09;100.00;101984.41;6260143;28;20056;-90
2023/05/03 08:44:55;;;;;;;3.10;1.98;;;;;;;9.21;100.00;101982.97;6263159;28;20044;-90
2023/05/03 08:47:57;;;;;;;5.88;2.05;;;;;;;9.32;100.00;101985.84;6257579;28;20679;-90
2023/05/03 08:51:03;;;;;;;2.83;2.08;;;;;;;9.33;100.00;101991.84;6264332;28;20036;-90
2023/05/03 08:54:05;;;;;;;4.32;2.10;;;;;;;9.34;100.00;101986.63;6251788;28;20048;-91
2023/05/03 08:57:10;;;;;;;5.35;1.95;;;;;;;9.29;100.00;101983.41;6264148;28;20495;-91
2023/05/03 09:00:13;;;;;;;3.50;2.00;;;;;;;9.23;100.00;101987.13;6262857;28;20491;-89
2023/05/03 09:03:15;;;;;;;2.85;1.70;;;;;;;9.29;100.00;101980.81;6252940;28;20057;-89
2023/05/03 09:06:27;;;;;;;6.13;1.80;;;;;;;9.19;100.00;101970.13;6262722;28;20094;-89
2023/05/03 09:09:32;;;;;;;6.55;2.33;;;;;;;9.20;100.00;101971.78;6252385;28;20071;-89
2023/05/03 09:12:39;;;;;;;4.75;1.88;;;;;;;9.25;100.00;101966.41;6269324;28;20044;-89
2023/05/03 09:15:44;;;;;;;6.57;2.22;;;;;;;9.13;100.00;101967.84;6246816;28;20049;-89
2023/05/03 09:19:01;;;;;;;4.65;2.00;;;;;;;8.87;100.00;101976.03;6256426;28;20048;-89
2023/05/03 09:22:06;;;;;;;3.72;1.67;;;;;;;8.69;100.00;101962.25;6242921;28;20056;-89
2023/05/03 09:25:08;;;;;;;3.47;1.88;;;;;;;8.76;100.00;101964.47;6247253;28;20039;-89
2023/05/03 09:28:11;;;;;;;4.93;1.90;;;;;;;9.05;100.00;101959.66;6251515;28;20044;-89
2023/05/03 09:31:13;;;;;;;6.35;2.10;;;;;;;9.18;100.00;101954.69;6250583;28;20053;-89
2023/05/03 09:34:22;;;;;;;4.78;2.22;;;;;;;9.40;100.00;101954.47;6249296;28;20030;-89
2023/05/03 09:37:37;;;;;;;8.40;1.92;;;;;;;9.48;100.00;101962.66;6259305;28;20751;-89
2023/05/03 09:40:49;;;;;;;4.50;2.20;;;;;;;9.69;100.00;101971.88;6252043;28;20561;-89
2023/05/03 09:43:51;;;;;;;3.40;2.08;;;;;;;9.82;100.00;101966.06;6257060;28;20088;-89
2023/05/03 09:47:04;;;;;;;4.65;2.30;;;;;;;10.04;100.00;101969.19;6259773;28;20107;-89
2023/05/03 09:50:06;;;;;;;4.45;2.60;;;;;;;10.23;100.00;101970.78;6252961;28;20048;-89
2023/05/03 09:53:08;;;;;;;7.20;1.88;;;;;;;10.26;100.00;101968.88;6262596;28;20045;-89
2023/05/03 09:56:19;;;;;;;5.60;2.03;;;;;;;10.35;100.00;101965.78;6257562;28;20539;-89
2023/05/03 09:59:21;;;;;;;3.00;1.95;;;;;;;10.42;100.00;101958.53;6259277;28;20201;-89
2023/05/03 10:02:23;;;;;;;4.47;2.10;;;;;;;10.53;100.00;101950.16;6258491;28;20134;-89
2023/05/03 10:05:30;;;;;;;5.53;1.88;;;;;;;10.69;100.00;101943.22;6245088;28;20049;-89
2023/05/03 10:08:48;;;;;;;6.38;2.08;;;;;;;10.82;100.00;101958.88;6256049;28;20037;-89
2023/05/03 10:11:54;;;;;;;4.07;1.77;;;;;;;10.90;100.00;101955.84;6248448;28;20041;-90
2023/05/03 10:14:58;;;;;;;4.47;1.95;;;;;;;10.92;100.00;101960.03;6247377;28;20386;-90
2023/05/03 10:18:05;;;;;;;3.70;1.55;;;;;;;10.99;100.00;101950.16;6257439;28;20491;-89
2023/05/03 10:21:13;;;;;;;5.38;2.00;;;;;;;11.04;100.00;101957.66;6238837;28;20499;-89
2023/05/03 10:24:16;;;;;;;4.80;2.00;;;;;;;11.05;100.00;101957.56;6245186;28;20037;-90
2023/05/03 10:27:17;;;;;;;7.25;1.95;;;;;;;11.06;100.00;101954.06;6249135;28;20076;-89
2023/05/03 10:30:27;;;;;;;3.92;2.03;;;;;;;10.99;100.00;101947.56;6239709;28;20567;-90
2023/05/03 10:33:35;;;;;;;3.40;1.65;;;;;;;10.93;100.00;101940.13;6250323;28;20041;-90
2023/05/03 10:36:42;;;;;;;6.60;2.35;;;;;;;10.88;100.00;101931.78;6252313;28;20052;-90
2023/05/03 10:39:51;;;;;;;5.45;2.00;;;;;;;10.99;100.00;101938.03;6259302;28;20037;-90
2023/05/03 10:42:58;;;;;;;7.07;1.98;;;;;;;11.03;100.00;101936.09;6255992;28;20522;-90
2023/05/03 10:46:05;;;;;;;3.67;1.95;;;;;;;11.06;100.00;101940.28;6257273;28;20079;-89
2023/05/03 10:49:15;;;;;;;3.38;2.10;;;;;;;11.07;100.00;101935.00;6260493;28;20053;-90
2023/05/03 10:52:38;;;;;;;3.33;1.95;;;;;;;11.14;100.00;101938.88;6263457;28;20033;-90
2023/05/03 10:56:00;;;;;;;6.95;2.60;;;;;;;11.33;100.00;101930.00;6273745;28;20049;-90
2023/05/03 10:59:04;;;;;;;2.90;1.75;;;;;;;11.47;100.00;101930.03;6255112;28;20479;-91
2023/05/03 11:02:09;;;;;;;4.47;1.80;;;;;;;11.75;100.00;101923.16;6251795;28;20052;-92
2023/05/03 11:05:13;;;;;;;6.45;2.10;;;;;;;11.97;100.00;101927.88;6260840;28;20068;-90
2023/05/03 11:08:17;;;;;;;7.90;2.38;;;;;;;12.05;100.00;101920.47;6260215;28;20045;-91
2023/05/03 11:11:21;;;;;;;4.28;1.95;;;;;;;11.94;100.00;101922.91;6249510;28;20041;-90
2023/05/03 11:14:23;;;;;;;2.55;1.70;;;;;;;11.92;100.00;101910.00;6254456;28;20907;-90
2023/05/03 11:17:28;;;;;;;5.53;2.22;;;;;;;12.04;100.00;101906.66;6255556;28;20045;-90
2023/05/03 11:20:30;;;;;;;4.13;2.05;;;;;;;11.99;100.00;101907.88;6254944;28;20526;-91
2023/05/03 11:23:31;;;;;;;3.53;1.95;;;;;;;12.10;100.00;101907.19;6254945;28;20749;-91
2023/05/03 11:26:38;;;;;;;6.15;1.80;;;;;;;12.25;100.00;101907.06;6255114;28;20043;-91
2023/05/03 11:29:40;;;;;;;4.03;1.80;;;;;;;12.41;100.00;101898.28;6259380;28;20045;-91
2023/05/03 11:32:42;;;;;;;3.92;2.22;;;;;;;12.60;100.00;101905.72;6260634;28;20068;-91
2023/05/03 11:35:44;;;;;;;4.78;2.17;;;;;;;12.85;100.00;101899.75;6261412;28;20483;-91
2023/05/03 11:38:46;;;;;;;8.05;2.47;;;;;;;12.99;100.00;101889.22;6253933;28;20108;-91
2023/05/03 11:42:04;;;;;;;5.63;2.10;;;;;;;13.18;100.00;101901.00;6256655;28;20374;-91
2023/05/03 11:45:06;;;;;;;6.80;1.85;;;;;;;13.15;100.00;101892.47;6247916;28;20456;-91
2023/05/03 11:48:11;;;;;;;4.68;2.00;;;;;;;13.28;100.00;101891.66;6245110;28;20334;-92
2023/05/03 11:51:14;;;;;;;5.75;1.75;;;;;;;13.41;100.00;101889.88;6252143;28;20049;-92
2023/05/03 11:54:16;;;;;;;5.15;2.00;;;;;;;13.54;100.00;101888.09;6261253;28;20503;-92
2023/05/03 11:57:31;;;;;;;4.25;2.17;;;;;;;13.68;100.00;101883.69;6261131;28;20091;-91
2023/05/03 12:00:33;;;;;;;6.70;2.10;;;;;;;13.80;100.00;101875.03;6252991;28;20038;-91
2023/05/03 12:03:35;;;;;;;5.38;2.20;;;;;;;13.97;100.00;101881.63;6250748;28;20168;-92
2023/05/03 12:06:37;;;;;;;7.95;2.42;;;;;;;14.27;100.00;101885.56;6248908;28;20348;-91
2023/05/03 12:09:41;;;;;;;6.22;2.60;;;;;;;14.43;100.00;101883.50;6253476;28;20379;-91
2023/05/03 12:12:55;;;;;;;5.63;2.42;;;;;;;14.39;100.00;101882.91;6254486;28;20045;-92
2023/05/03 12:15:59;;;;;;;7.63;2.65;;;;;;;14.45;95.88;101881.59;6259623;28;20155;-91
2023/05/03 12:19:28;;;;;;;3.28;2.38;;;;;;;14.61;100.00;101873.53;6248585;28;20502;-91
2023/05/03 12:22:33;;;;;;;3.85;2.25;;;;;;;14.73;99.00;101859.59;6249577;28;20048;-92
2023/05/03 12:25:36;;;;;;;5.60;2.60;;;;;;;14.75;89.65;101865.50;6254641;28;20516;-91
2023/05/03 12:28:44;;;;;;;6.97;2.47;;;;;;;14.86;100.00;101852.50;6249820;28;20100;-92
2023/05/03 12:31:47;;;;;;;3.70;2.90;;;;;;;15.17;100.00;101852.75;6252376;28;20041;-92
2023/05/03 12:34:50;;;;;;;4.85;2.67;;;;;;;15.07;89.79;101851.78;6249028;28;20056;-92
2023/05/03 12:37:53;;;;;;;5.57;2.67;;;;;;;14.99;96.05;101848.94;6257763;28;20139;-91
2023/05/03 12:40:55;;;;;;;8.15;2.80;;;;;;;15.08;98.88;101843.88;6257343;28;20160;-91
2023/05/03 12:43:57;;;;;;;6.75;3.13;;;;;;;15.29;99.62;101849.19;6260574;28;20080;-92
2023/05/03 12:47:02;;;;;;;9.02;3.40;;;;;;;15.52;100.00;101839.53;6273553;28;20041;-92
2023/05/03 12:50:07;;;;;;;6.10;3.15;;;;;;;15.62;91.75;101844.88;6255276;28;20123;-92
2023/05/03 12:53:13;;;;;;;7.10;3.30;;;;;;;15.75;87.88;101843.94;6254106;28;20151;-92
2023/05/03 12:56:18;;;;;;;6.70;2.60;;;;;;;15.90;96.07;101845.34;6254416;28;20404;-92
2023/05/03 12:59:25;;;;;;;5.03;2.70;;;;;;;16.02;81.48;101839.09;6255522;28;20056;-92
2023/05/03 13:02:30;;;;;;;7.25;3.30;;;;;;;15.91;83.84;101839.97;6255075;28;20080;-92
2023/05/03 13:05:35;;;;;;;5.90;3.22;;;;;;;15.94;99.59;101836.28;6251550;28;20419;-92
2023/05/03 13:08:38;;;;;;;6.72;2.83;;;;;;;16.14;92.13;101835.47;6260601;28;20045;-92
2023/05/03 13:11:51;;;;;;;4.50;2.55;;;;;;;16.16;81.78;101827.53;6260978;28;20045;-92
2023/05/03 13:14:54;;;;;;;6.43;2.70;;;;;;;16.35;83.74;101819.84;6259059;28;20037;-91
2023/05/03 13:18:00;;;;;;;7.30;2.90;;;;;;;16.34;80.46;101820.78;6265116;28;20117;-91
2023/05/03 13:21:02;;;;;;;4.90;3.08;;;;;;;16.43;75.74;101811.38;6257062;28;20045;-91
2023/05/03 13:24:07;;;;;;;5.15;2.20;;;;;;;16.47;75.15;101811.91;6253797;28;20037;-92
2023/05/03 13:27:13;;;;;;;4.78;2.40;;;;;;;16.64;86.50;101810.50;6250259;28;20121;-92
2023/05/03 13:30:15;;;;;;;3.33;2.45;;;;;;;16.89;79.80;101806.69;6261047;28;20513;-91
2023/05/03 13:33:17;;;;;;;5.13;2.40;;;;;;;16.92;85.15;101798.59;6260536;28;20052;-91
2023/05/03 13:36:21;;;;;;;5.80;2.55;;;;;;;17.07;79.00;101802.50;6261089;28;20479;-91
2023/05/03 13:39:24;;;;;;;3.58;2.10;;;;;;;17.08;67.84;101791.06;6251703;28;20501;-91
2023/05/03 13:42:27;;;;;;;8.52;2.40;;;;;;;17.19;73.16;101790.13;6254354;28;20064;-91
2023/05/03 13:45:29;;;;;;;9.07;2.20;;;;;;;17.33;73.28;101784.53;6259780;28;20029;-91
2023/05/03 13:48:30;;;;;;;8.93;2.33;;;;;;;17.43;74.61;101780.13;6254585;28;20041;-91
2023/05/03 13:51:33;;;;;;;6.70;2.15;;;;;;;17.36;75.88;101783.44;6254701;28;20510;-91
2023/05/03 13:54:35;;;;;;;6.90;2.05;;;;;;;17.59;70.83;101774.38;6244711;28;20034;-91
2023/05/03 13:57:39;;;;;;;5.80;1.95;;;;;;;17.91;75.35;101775.09;6257372;28;20171;-92
2023/05/03 14:00:43;;;;;;;3.65;1.90;;;;;;;18.15;72.44;101777.28;6254469;28;20037;-92
2023/05/03 14:03:45;;;;;;;16.05;2.97;;;;;;;18.28;62.81;101781.28;6242421;28;20081;-91
2023/05/03 14:06:47;;;;;;;4.40;1.90;;;;;;;18.32;70.08;101773.13;6263306;28;20119;-93
2023/05/03 14:09:49;;;;;;;5.07;2.33;;;;;;;18.40;65.76;101776.69;6263171;28;20403;-93
2023/05/03 14:12:51;;;;;;;4.82;2.13;;;;;;;18.34;63.02;101765.97;6263614;28;20655;-93
2023/05/03 14:15:57;;;;;;;5.85;2.35;;;;;;;18.27;65.12;101765.69;6253484;28;20424;-93